Time;durP1;ratioP1;P1;durP2;ratioP2;P2;SDS_P1;SDS_P2;PMS_P1;PMS_P2;Temp;Humidity;BMP_temperature;BMP_pressure;BME280_temperature;BME280_humidity;BME280_pressure;Samples;Min_cycle;Max_cycle;Signal;HPM_P1;HPM_P2
2022/01/21 00:01:17;;;;;;;;;;;;;;;-1.18;87.37;98126.46;1654619;85;24729;-82
2022/01/21 00:03:43;;;;;;;;;;;;;;;-1.14;87.53;98129.33;1657103;85;20534;-82
2022/01/21 00:06:10;;;;;;;;;;;;;;;-1.14;87.68;98145.58;1662903;85;25001;-81
2022/01/21 00:08:37;;;;;;;;;;;;;;;-1.17;87.78;98146.12;1660034;85;22136;-81
2022/01/21 00:11:03;;;;;;;;;;;;;;;-1.22;87.93;98150.10;1661776;85;26216;-82
2022/01/21 00:13:36;;;;;;;;;;;;;;;-1.28;88.07;98154.96;1663095;85;24594;-81
2022/01/21 00:16:04;;;;;;;;;;;;;;;-1.33;88.22;98156.81;1662816;85;20257;-82
2022/01/21 00:18:30;;;;;;;;;;;;;;;-1.38;88.44;98161.67;1639583;85;25036;-82
2022/01/21 00:31:55;;;;;;;;;;;;;;;-1.52;89.74;98163.30;1657137;85;25032;-81
2022/01/21 00:34:22;;;;;;;;;;;;;;;-1.54;90.03;98175.34;1655034;85;22782;-82
2022/01/21 00:36:48;;;;;;;;;;;;;;;-1.57;90.24;98175.84;1656903;85;26234;-81
2022/01/21 00:39:14;;;;;;;;;;;;;;;-1.60;90.49;98181.07;1662753;85;24515;-82
2022/01/21 00:41:56;;;;;;;;;;;;;;;-1.62;90.71;98181.09;1666173;84;20509;-81
2022/01/21 00:44:11;;;;;;;;;;;;;;;-1.65;90.93;98182.91;1650035;85;25196;-81
2022/01/21 00:46:37;;;;;;;;;;;;;;;-1.69;91.13;98185.97;1657122;85;21963;-81
2022/01/21 00:49:03;;;;;;;;;;;;;;;-1.71;91.33;98189.03;1656781;85;21026;-82
2022/01/21 00:51:30;;;;;;;;;;;;;;;-1.70;91.53;98194.58;1663186;84;24550;-82
2022/01/21 00:53:56;;;;;;;;;;;;;;;-1.71;91.72;98197.58;1657176;85;20256;-81
2022/01/21 00:56:31;;;;;;;;;;;;;;;-1.73;91.92;98191.63;1657174;85;25634;-81
2022/01/21 00:58:57;;;;;;;;;;;;;;;-1.73;92.10;98204.45;1656693;85;21964;-81
2022/01/21 01:01:23;;;;;;;;;;;;;;;-1.73;92.30;98207.02;1659217;85;26022;-81
2022/01/21 01:03:49;;;;;;;;;;;;;;;-1.72;92.52;98218.13;1658732;85;24417;-81
2022/01/21 01:06:16;;;;;;;;;;;;;;;-1.75;92.70;98220.34;1663878;85;20249;-82
2022/01/21 01:08:42;;;;;;;;;;;;;;;-1.75;92.88;98219.50;1660226;86;24965;-82
2022/01/21 01:21:46;;;;;;;;;;;;;;;-1.87;93.71;98229.61;1661526;86;25027;-81
2022/01/21 01:29:25;;;;;;;;;;;;;;;-1.93;94.23;98245.56;1664576;86;24467;-82
2022/01/21 01:31:51;;;;;;;;;;;;;;;-1.97;94.44;98251.66;1662428;86;20205;-81
2022/01/21 01:34:18;;;;;;;;;;;;;;;-1.98;94.59;98249.96;1666132;86;25092;-81
2022/01/21 01:36:46;;;;;;;;;;;;;;;-2.01;94.77;98252.14;1661530;85;22022;-81
2022/01/21 01:39:29;;;;;;;;;;;;;;;-2.01;94.93;98255.14;1662965;86;26588;-81
2022/01/21 01:41:56;;;;;;;;;;;;;;;-2.03;95.11;98259.05;1665205;85;24464;-81
2022/01/21 01:49:45;;;;;;;;;;;;;;;-2.05;95.56;98267.20;1658913;86;22001;-82
2022/01/21 01:52:12;;;;;;;;;;;;;;;-2.06;95.68;98268.50;1664297;86;26078;-82
2022/01/21 01:54:40;;;;;;;;;;;;;;;-2.08;95.79;98262.16;1667715;86;24474;-82
2022/01/21 01:57:07;;;;;;;;;;;;;;;-2.07;95.88;98269.41;1664293;86;20173;-82
2022/01/21 01:59:34;;;;;;;;;;;;;;;-2.06;95.99;98263.37;1664279;86;24991;-82
2022/01/21 02:02:01;;;;;;;;;;;;;;;-2.09;96.08;98258.33;1666307;86;22089;-82
2022/01/21 02:04:28;;;;;;;;;;;;;;;-2.11;96.10;98262.20;1666043;86;26024;-83
2022/01/21 02:06:54;;;;;;;;;;;;;;;-2.12;96.13;98258.80;1659902;86;24651;-82
2022/01/21 02:09:20;;;;;;;;;;;;;;;-2.09;96.22;98266.87;1663829;86;20483;-82
2022/01/21 02:11:47;;;;;;;;;;;;;;;-2.08;96.29;98265.15;1650799;85;24907;-82
2022/01/21 02:14:20;;;;;;;;;;;;;;;-2.09;96.37;98264.74;1659337;86;22092;-82
2022/01/21 02:17:11;;;;;;;;;;;;;;;-2.09;96.43;98268.59;1660382;86;26356;-82
2022/01/21 02:21:55;;;;;;;;;;;;;;;-2.13;96.59;98264.79;1658040;86;20169;-82
2022/01/21 02:24:29;;;;;;;;;;;;;;;-2.16;96.67;98273.00;1662761;86;25042;-82
2022/01/21 02:26:51;;;;;;;;;;;;;;;-2.22;96.73;98281.66;1659331;85;21977;-82
2022/01/21 02:29:27;;;;;;;;;;;;;;;-2.24;96.81;98282.16;1662685;86;26151;-82
2022/01/21 02:31:47;;;;;;;;;;;;;;;-2.27;96.89;98289.89;1662603;85;25160;-82
2022/01/21 02:34:13;;;;;;;;;;;;;;;-2.30;96.96;98292.53;1658247;86;20252;-81
2022/01/21 02:36:40;;;;;;;;;;;;;;;-2.35;97.06;98291.78;1662753;86;20731;-81
2022/01/21 02:39:06;;;;;;;;;;;;;;;-2.36;97.14;98284.13;1663675;86;22052;-81
2022/01/21 02:41:32;;;;;;;;;;;;;;;-2.36;97.26;98293.94;1661874;86;25970;-82
2022/01/21 02:43:58;;;;;;;;;;;;;;;-2.37;97.34;98305.48;1661946;86;24408;-82
2022/01/21 02:46:24;;;;;;;;;;;;;;;-2.38;97.41;98308.48;1665292;86;20704;-81
2022/01/21 02:48:50;;;;;;;;;;;;;;;-2.39;97.45;98310.63;1663584;86;20240;-81
2022/01/21 02:51:16;;;;;;;;;;;;;;;-2.41;97.51;98317.97;1664365;86;21928;-81
2022/01/21 02:56:16;;;;;;;;;;;;;;;-2.61;97.57;98334.55;1660951;86;24541;-82
2022/01/21 02:58:43;;;;;;;;;;;;;;;-2.71;97.64;98323.23;1658805;86;21279;-82
2022/01/21 03:01:10;;;;;;;;;;;;;;;-2.76;97.80;98327.59;1648373;86;25304;-82
2022/01/21 03:03:36;;;;;;;;;;;;;;;-2.76;98.00;98334.00;1662899;86;22022;-82
2022/01/21 03:06:02;;;;;;;;;;;;;;;-2.77;98.18;98338.70;1662660;85;26070;-82
2022/01/21 03:08:29;;;;;;;;;;;;;;;-2.73;98.44;98348.05;1660968;86;24635;-82
2022/01/21 03:10:56;;;;;;;;;;;;;;;-2.72;98.69;98349.27;1660001;86;20205;-82
2022/01/21 03:13:22;;;;;;;;;;;;;;;-2.73;98.92;98346.33;1662885;86;25136;-82
2022/01/21 03:15:48;;;;;;;;;;;;;;;-2.74;99.17;98342.08;1660520;86;22150;-82
2022/01/21 03:18:15;;;;;;;;;;;;;;;-2.78;99.36;98342.16;1660750;86;26283;-82
2022/01/21 03:20:41;;;;;;;;;;;;;;;-2.79;99.56;98346.87;1664140;86;24504;-81
2022/01/21 03:23:08;;;;;;;;;;;;;;;-2.78;99.79;98352.41;1659516;86;20225;-81
2022/01/21 03:25:34;;;;;;;;;;;;;;;-2.79;99.98;98361.80;1657001;86;25231;-81
2022/01/21 03:28:00;;;;;;;;;;;;;;;-2.84;100.00;98356.36;1664230;86;21967;-81
2022/01/21 03:30:27;;;;;;;;;;;;;;;-2.86;100.00;98367.05;1662704;86;26053;-81
2022/01/21 03:32:53;;;;;;;;;;;;;;;-2.85;100.00;98358.50;1663599;86;24482;-81
2022/01/21 03:35:19;;;;;;;;;;;;;;;-2.82;100.00;98368.67;1662176;86;20318;-81
2022/01/21 03:37:45;;;;;;;;;;;;;;;-2.80;100.00;98371.63;1663536;86;25008;-81
2022/01/21 03:40:11;;;;;;;;;;;;;;;-2.78;100.00;98366.49;1662208;86;22637;-82
2022/01/21 03:42:37;;;;;;;;;;;;;;;-2.79;100.00;98375.04;1658908;86;25979;-81
2022/01/21 03:45:04;;;;;;;;;;;;;;;-2.72;100.00;98374.88;1661700;86;20351;-81
2022/01/21 03:47:30;;;;;;;;;;;;;;;-2.68;100.00;98374.41;1663596;86;20343;-81
2022/01/21 03:50:08;;;;;;;;;;;;;;;-2.67;100.00;98383.33;1661801;86;25010;-81
2022/01/21 03:52:25;;;;;;;;;;;;;;;-2.66;100.00;98380.33;1662640;85;21683;-81
2022/01/21 03:54:51;;;;;;;;;;;;;;;-2.67;100.00;98378.64;1662566;86;25967;-82
2022/01/21 03:57:17;;;;;;;;;;;;;;;-2.71;100.00;98382.13;1660843;86;20231;-81
2022/01/21 03:59:43;;;;;;;;;;;;;;;-2.76;100.00;98380.09;1659824;86;20225;-81
2022/01/21 04:02:09;;;;;;;;;;;;;;;-2.78;100.00;98387.80;1662597;86;20271;-81
2022/01/21 04:04:35;;;;;;;;;;;;;;;-2.79;100.00;98388.69;1661190;86;22033;-81
2022/01/21 04:07:03;;;;;;;;;;;;;;;-2.84;100.00;98384.09;1663148;84;26030;-81
2022/01/21 04:09:29;;;;;;;;;;;;;;;-2.89;100.00;98385.85;1668093;85;24437;-81
2022/01/21 04:11:55;;;;;;;;;;;;;;;-2.90;100.00;98393.59;1666238;85;20224;-81
2022/01/21 04:14:21;;;;;;;;;;;;;;;-2.93;100.00;98389.78;1666291;85;25025;-81
2022/01/21 04:16:47;;;;;;;;;;;;;;;-2.95;100.00;98386.80;1671581;85;22014;-81
2022/01/21 04:19:13;;;;;;;;;;;;;;;-2.97;100.00;98388.56;1657895;85;25969;-82
2022/01/21 04:21:39;;;;;;;;;;;;;;;-2.96;100.00;98390.26;1676662;83;24407;-81
2022/01/21 04:24:05;;;;;;;;;;;;;;;-2.96;100.00;98388.13;1680832;84;20261;-81
2022/01/21 04:26:31;;;;;;;;;;;;;;;-2.98;100.00;98396.26;1663444;85;25039;-81
2022/01/21 04:28:57;;;;;;;;;;;;;;;-3.01;100.00;98395.89;1649402;85;23813;-81
2022/01/21 04:31:24;;;;;;;;;;;;;;;-3.03;100.00;98400.18;1667894;85;26051;-81
2022/01/21 04:33:51;;;;;;;;;;;;;;;-3.02;100.00;98406.99;1665047;84;25181;-81
2022/01/21 04:36:17;;;;;;;;;;;;;;;-3.00;100.00;98410.36;1667845;85;20209;-81
2022/01/21 04:38:43;;;;;;;;;;;;;;;-3.00;100.00;98406.98;1668353;85;25050;-81
2022/01/21 04:49:12;;;;;;;;;;;;;;;-3.08;99.79;98416.05;1663549;85;20653;-81
2022/01/21 04:51:42;;;;;;;;;;;;;;;-3.13;99.62;98428.51;1662748;85;24942;-81
2022/01/21 04:54:06;;;;;;;;;;;;;;;-3.17;99.49;98428.16;1666638;85;22113;-81
2022/01/21 04:56:32;;;;;;;;;;;;;;;-3.21;99.34;98429.89;1660959;84;26208;-81
2022/01/21 04:58:58;;;;;;;;;;;;;;;-3.26;99.18;98426.56;1666111;85;24560;-81
2022/01/21 05:01:24;;;;;;;;;;;;;;;-3.30;99.03;98435.16;1664538;85;20252;-81
2022/01/21 05:03:51;;;;;;;;;;;;;;;-3.33;98.89;98428.82;1661564;85;24944;-82
2022/01/21 05:06:17;;;;;;;;;;;;;;;-3.32;98.79;98428.36;1663498;85;22038;-82
2022/01/21 05:08:53;;;;;;;;;;;;;;;-3.32;98.72;98430.48;1668565;85;21084;-81
2022/01/21 05:11:17;;;;;;;;;;;;;;;-3.31;98.67;98437.30;1670499;85;25136;-82
2022/01/21 05:13:51;;;;;;;;;;;;;;;-3.31;98.58;98439.01;1669989;84;20148;-81
2022/01/21 05:16:29;;;;;;;;;;;;;;;-3.31;98.52;98436.02;1666061;85;25838;-81
2022/01/21 05:18:39;;;;;;;;;;;;;;;-3.29;98.47;98441.97;1669655;85;21953;-81
2022/01/21 05:21:05;;;;;;;;;;;;;;;-3.30;98.41;98439.00;1672788;85;25940;-81
2022/01/21 05:23:31;;;;;;;;;;;;;;;-3.30;98.35;98441.55;1671064;84;20251;-81
2022/01/21 05:25:57;;;;;;;;;;;;;;;-3.29;98.29;98433.45;1668982;84;20232;-81
2022/01/21 05:28:23;;;;;;;;;;;;;;;-3.25;98.25;98431.24;1668999;85;25090;-81
2022/01/21 05:30:49;;;;;;;;;;;;;;;-3.23;98.21;98426.53;1670956;85;21944;-81
2022/01/21 05:33:15;;;;;;;;;;;;;;;-3.19;98.19;98434.56;1669546;85;21232;-81
2022/01/21 05:35:41;;;;;;;;;;;;;;;-3.18;98.14;98426.45;1669780;85;20357;-81
2022/01/21 05:38:07;;;;;;;;;;;;;;;-3.16;98.13;98434.50;1668783;84;20790;-81
2022/01/21 05:40:33;;;;;;;;;;;;;;;-3.13;98.13;98433.20;1668640;84;25124;-81
2022/01/21 05:42:59;;;;;;;;;;;;;;;-3.07;98.13;98430.55;1668644;84;20327;-82
2022/01/21 05:48:10;;;;;;;;;;;;;;;-3.00;98.09;98429.55;1667199;85;24640;-81
2022/01/21 05:50:36;;;;;;;;;;;;;;;-2.94;98.05;98431.17;1669841;85;20815;-81
2022/01/21 05:53:08;;;;;;;;;;;;;;;-2.91;98.00;98430.29;1668974;85;25023;-81
2022/01/21 05:55:30;;;;;;;;;;;;;;;-2.85;97.98;98440.44;1667327;85;22086;-81
2022/01/21 05:57:57;;;;;;;;;;;;;;;-2.82;97.94;98444.21;1667875;85;25941;-81
2022/01/21 06:00:23;;;;;;;;;;;;;;;-2.80;97.88;98445.05;1669275;85;24451;-81
2022/01/21 06:02:50;;;;;;;;;;;;;;;-2.76;97.81;98444.96;1667687;85;20526;-81
2022/01/21 06:05:16;;;;;;;;;;;;;;;-2.71;97.74;98441.03;1664836;84;24883;-81
2022/01/21 06:07:42;;;;;;;;;;;;;;;-2.68;97.67;98449.97;1665443;84;21889;-81
2022/01/21 06:10:08;;;;;;;;;;;;;;;-2.70;97.50;98456.81;1661155;84;26011;-81
2022/01/21 06:12:35;;;;;;;;;;;;;;;-2.72;97.35;98458.11;1637515;85;24396;-81
2022/01/21 06:15:01;;;;;;;;;;;;;;;-2.70;97.25;98449.14;1653848;85;20494;-81
2022/01/21 06:17:27;;;;;;;;;;;;;;;-2.72;97.11;98458.11;1659264;84;25021;-81
2022/01/21 06:19:53;;;;;;;;;;;;;;;-2.71;96.94;98453.84;1664075;85;22052;-81
2022/01/21 06:22:19;;;;;;;;;;;;;;;-2.71;96.79;98452.13;1658105;85;25935;-81
2022/01/21 06:24:45;;;;;;;;;;;;;;;-2.68;96.64;98456.37;1667108;85;24385;-81
2022/01/21 06:27:12;;;;;;;;;;;;;;;-2.69;96.48;98448.27;1660981;85;20466;-81
2022/01/21 06:29:38;;;;;;;;;;;;;;;-2.65;96.37;98453.73;1657146;85;20288;-81
2022/01/21 06:32:05;;;;;;;;;;;;;;;-2.64;96.27;98450.31;1663262;85;22813;-82
2022/01/21 06:34:31;;;;;;;;;;;;;;;-2.62;96.17;98462.67;1643288;85;26389;-81
2022/01/21 06:36:57;;;;;;;;;;;;;;;-2.64;96.03;98463.13;1657017;85;24467;-81
2022/01/21 06:39:23;;;;;;;;;;;;;;;-2.63;95.91;98463.11;1658634;85;20326;-81
2022/01/21 06:41:51;;;;;;;;;;;;;;;-2.61;95.82;98469.46;1655707;85;24936;-81
2022/01/21 06:44:17;;;;;;;;;;;;;;;-2.60;95.73;98466.88;1654860;85;22006;-81
2022/01/21 06:46:43;;;;;;;;;;;;;;;-2.54;95.67;98464.22;1657441;85;26205;-81
2022/01/21 06:49:09;;;;;;;;;;;;;;;-2.50;95.63;98467.56;1652748;85;24474;-81
2022/01/21 06:51:35;;;;;;;;;;;;;;;-2.48;95.56;98465.83;1657037;84;20309;-81
2022/01/21 06:54:01;;;;;;;;;;;;;;;-2.48;95.51;98477.36;1654162;85;25019;-81
2022/01/21 06:56:27;;;;;;;;;;;;;;;-2.47;95.46;98470.52;1657095;84;22009;-81
2022/01/21 06:58:53;;;;;;;;;;;;;;;-2.42;95.43;98468.72;1663328;85;26091;-81
2022/01/21 07:01:19;;;;;;;;;;;;;;;-2.44;95.37;98472.58;1661106;85;24427;-81
2022/01/21 07:03:45;;;;;;;;;;;;;;;-2.44;95.31;98471.30;1662332;84;20179;-81
2022/01/21 07:06:11;;;;;;;;;;;;;;;-2.43;95.24;98469.59;1657224;84;20231;-81
2022/01/21 07:08:37;;;;;;;;;;;;;;;-2.39;95.17;98477.62;1660611;85;20364;-81
2022/01/21 07:11:03;;;;;;;;;;;;;;;-2.38;95.09;98480.59;1657353;85;26139;-81
2022/01/21 07:13:30;;;;;;;;;;;;;;;-2.34;95.06;98480.51;1658680;84;24405;-81
2022/01/21 07:15:57;;;;;;;;;;;;;;;-2.33;95.03;98484.77;1652585;84;20338;-81
2022/01/21 07:18:23;;;;;;;;;;;;;;;-2.33;94.97;98486.05;1657164;85;24987;-81
2022/01/21 07:20:49;;;;;;;;;;;;;;;-2.34;94.86;98487.35;1659374;84;22029;-81
2022/01/21 07:23:15;;;;;;;;;;;;;;;-2.38;94.71;98484.01;1658959;84;26018;-81
2022/01/21 07:25:41;;;;;;;;;;;;;;;-2.41;94.57;98487.07;1656897;85;24513;-81
2022/01/21 07:28:09;;;;;;;;;;;;;;;-2.43;94.41;98489.65;1657192;85;20893;-81
2022/01/21 07:30:35;;;;;;;;;;;;;;;-2.42;94.31;98494.34;1657005;84;24518;-81
2022/01/21 07:33:01;;;;;;;;;;;;;;;-2.39;94.26;98493.84;1656825;84;21961;-81
2022/01/21 07:35:27;;;;;;;;;;;;;;;-2.37;94.22;98494.67;1659212;85;26058;-81
2022/01/21 07:37:53;;;;;;;;;;;;;;;-2.37;94.17;98493.83;1653005;85;24434;-81
2022/01/21 07:40:19;;;;;;;;;;;;;;;-2.38;94.14;98494.26;1661348;84;20242;-82
2022/01/21 07:42:45;;;;;;;;;;;;;;;-2.38;94.12;98498.10;1657318;84;25029;-81
2022/01/21 07:45:11;;;;;;;;;;;;;;;-2.39;94.06;98493.00;1660627;85;22039;-81
2022/01/21 07:47:38;;;;;;;;;;;;;;;-2.43;93.99;98496.05;1637584;85;20898;-81
2022/01/21 07:50:04;;;;;;;;;;;;;;;-2.47;93.91;98502.55;1659326;85;24603;-81
2022/01/21 07:52:31;;;;;;;;;;;;;;;-2.51;93.83;98501.77;1661198;85;20453;-81
2022/01/21 07:54:57;;;;;;;;;;;;;;;-2.54;93.81;98499.23;1655367;85;25015;-81
2022/01/21 07:57:23;;;;;;;;;;;;;;;-2.56;93.78;98504.38;1659060;85;21972;-81
2022/01/21 07:59:49;;;;;;;;;;;;;;;-2.58;93.76;98502.73;1663368;84;26025;-81
2022/01/21 08:02:16;;;;;;;;;;;;;;;-2.65;93.71;98503.69;1661294;85;20274;-83
2022/01/21 08:04:42;;;;;;;;;;;;;;;-2.65;93.72;98496.00;1660831;85;20233;-81
2022/01/21 08:07:10;;;;;;;;;;;;;;;-2.65;93.77;98499.84;1654524;85;20917;-82
2022/01/21 08:09:36;;;;;;;;;;;;;;;-2.66;93.81;98506.68;1666685;86;22115;-81
2022/01/21 08:12:02;;;;;;;;;;;;;;;-2.64;93.88;98497.70;1668878;86;26673;-82
2022/01/21 08:14:28;;;;;;;;;;;;;;;-2.61;93.97;98504.04;1663322;85;24507;-81
2022/01/21 08:16:55;;;;;;;;;;;;;;;-2.60;94.08;98501.89;1663616;86;20793;-81
2022/01/21 08:19:21;;;;;;;;;;;;;;;-2.58;94.19;98505.29;1660571;86;25225;-82
2022/01/21 08:21:47;;;;;;;;;;;;;;;-2.58;94.28;98511.26;1667175;86;22039;-81
2022/01/21 08:24:13;;;;;;;;;;;;;;;-2.58;94.36;98510.41;1661441;86;26112;-81
2022/01/21 08:26:39;;;;;;;;;;;;;;;-2.59;94.47;98513.41;1660163;86;20274;-81
2022/01/21 08:29:06;;;;;;;;;;;;;;;-2.60;94.56;98511.70;1663263;86;20440;-81
2022/01/21 08:31:32;;;;;;;;;;;;;;;-2.58;94.68;98511.69;1664644;86;25074;-81
2022/01/21 08:33:59;;;;;;;;;;;;;;;-2.56;94.87;98505.66;1660891;86;22440;-81
2022/01/21 08:36:25;;;;;;;;;;;;;;;-2.55;95.03;98504.79;1666806;86;26001;-82
2022/01/21 08:38:57;;;;;;;;;;;;;;;-2.54;95.20;98509.48;1678196;85;24622;-82
2022/01/21 08:41:23;;;;;;;;;;;;;;;-2.54;95.39;98509.48;1649375;85;20510;-81
2022/01/21 08:43:49;;;;;;;;;;;;;;;-2.52;95.57;98508.19;1650434;85;25126;-81
2022/01/21 08:46:15;;;;;;;;;;;;;;;-2.52;95.75;98513.31;1655706;86;20397;-81
2022/01/21 08:48:41;;;;;;;;;;;;;;;-2.53;95.94;98512.46;1677550;84;26213;-81
2022/01/21 08:51:10;;;;;;;;;;;;;;;-2.52;96.17;98509.03;1679069;84;24389;-81
2022/01/21 08:53:36;;;;;;;;;;;;;;;-2.48;96.44;98510.66;1642496;86;20246;-82
2022/01/21 08:56:03;;;;;;;;;;;;;;;-2.46;96.69;98513.21;1650440;86;25130;-82
2022/01/21 08:58:29;;;;;;;;;;;;;;;-2.42;96.92;98518.25;1666176;84;21998;-82
2022/01/21 09:00:55;;;;;;;;;;;;;;;-2.39;97.17;98519.47;1665132;85;26601;-82
2022/01/21 09:03:21;;;;;;;;;;;;;;;-2.37;97.42;98522.86;1668567;85;24594;-82
2022/01/21 09:05:51;;;;;;;;;;;;;;;-2.33;97.67;98523.20;1668280;84;20315;-82
2022/01/21 09:08:18;;;;;;;;;;;;;;;-2.29;97.93;98514.59;1675259;84;24962;-82
2022/01/21 09:10:44;;;;;;;;;;;;;;;-2.28;98.16;98529.53;1661352;84;22002;-82
2022/01/21 09:13:10;;;;;;;;;;;;;;;-2.28;98.37;98532.95;1665173;85;26048;-82
2022/01/21 09:15:37;;;;;;;;;;;;;;;-2.31;98.54;98530.87;1665960;86;24404;-82
2022/01/21 09:18:05;;;;;;;;;;;;;;;-2.33;98.71;98530.05;1663626;86;20289;-82
2022/01/21 09:20:32;;;;;;;;;;;;;;;-2.35;98.88;98535.22;1665813;86;24982;-81
2022/01/21 09:22:58;;;;;;;;;;;;;;;-2.33;99.09;98532.61;1662340;86;22114;-82
2022/01/21 09:25:24;;;;;;;;;;;;;;;-2.37;99.25;98531.83;1666855;86;26857;-81
2022/01/21 09:27:52;;;;;;;;;;;;;;;-2.36;99.44;98532.68;1663826;86;20919;-81
2022/01/21 09:30:18;;;;;;;;;;;;;;;-2.32;99.64;98541.56;1665174;85;20319;-81
2022/01/21 09:32:45;;;;;;;;;;;;;;;-2.26;99.88;98541.89;1668976;86;25037;-82
2022/01/21 09:35:11;;;;;;;;;;;;;;;-2.23;100.00;98547.80;1662828;86;22066;-81
2022/01/21 09:37:37;;;;;;;;;;;;;;;-2.19;100.00;98544.34;1662809;84;26132;-81
2022/01/21 09:40:08;;;;;;;;;;;;;;;-2.12;100.00;98545.05;1666201;84;24659;-81
2022/01/21 09:42:34;;;;;;;;;;;;;;;-2.08;100.00;98544.58;1666104;86;20312;-81
2022/01/21 09:45:04;;;;;;;;;;;;;;;-2.03;100.00;98545.34;1665222;86;25030;-81
2022/01/21 09:47:31;;;;;;;;;;;;;;;-2.00;100.00;98546.56;1663315;86;22018;-81
2022/01/21 09:49:58;;;;;;;;;;;;;;;-2.01;100.00;98549.55;1664618;86;25998;-81
2022/01/21 09:52:24;;;;;;;;;;;;;;;-2.02;100.00;98547.89;1665872;86;24475;-82
2022/01/21 09:54:56;;;;;;;;;;;;;;;-1.97;100.00;98555.50;1662295;86;20437;-82
2022/01/21 09:57:23;;;;;;;;;;;;;;;-1.95;100.00;98552.45;1667630;86;25055;-82
2022/01/21 09:59:52;;;;;;;;;;;;;;;-1.90;100.00;98546.80;1661416;86;22008;-82
2022/01/21 10:02:19;;;;;;;;;;;;;;;-1.84;100.00;98547.97;1665259;86;26845;-81
2022/01/21 10:04:49;;;;;;;;;;;;;;;-1.81;100.00;98537.23;1661431;86;25179;-81
2022/01/21 10:07:23;;;;;;;;;;;;;;;-1.78;100.00;98541.45;1660742;86;20222;-81
2022/01/21 10:09:50;;;;;;;;;;;;;;;-1.73;100.00;98539.63;1663916;85;25047;-81
2022/01/21 10:12:16;;;;;;;;;;;;;;;-1.65;100.00;98542.91;1657456;85;22044;-82
2022/01/21 10:14:42;;;;;;;;;;;;;;;-1.65;100.00;98537.78;1667437;85;25930;-81
2022/01/21 10:17:09;;;;;;;;;;;;;;;-1.62;100.00;98534.30;1666685;85;24402;-81
2022/01/21 10:19:37;;;;;;;;;;;;;;;-1.57;100.00;98535.89;1659321;85;20225;-81
2022/01/21 10:22:06;;;;;;;;;;;;;;;-1.52;100.00;98538.36;1667857;85;25707;-82
2022/01/21 10:24:34;;;;;;;;;;;;;;;-1.47;100.00;98536.11;1657724;85;22146;-82
2022/01/21 10:27:00;;;;;;;;;;;;;;;-1.40;100.00;98532.98;1662263;85;25999;-82
2022/01/21 10:29:37;;;;;;;;;;;;;;;-1.38;100.00;98540.23;1660566;85;24422;-81
2022/01/21 10:32:03;;;;;;;;;;;;;;;-1.39;100.00;98530.84;1652592;85;20290;-81
2022/01/21 10:34:40;;;;;;;;;;;;;;;-1.43;100.00;98535.20;1664917;85;25032;-81
2022/01/21 10:37:25;;;;;;;;;;;;;;;-1.43;100.00;98533.91;1660249;85;21929;-82
2022/01/21 10:39:58;;;;;;;;;;;;;;;-1.36;100.00;98533.33;1670396;85;26254;-82
2022/01/21 10:42:25;;;;;;;;;;;;;;;-1.36;100.00;98532.05;1667285;85;24426;-82
2022/01/21 10:44:52;;;;;;;;;;;;;;;-1.34;100.00;98529.02;1667270;85;20475;-82
2022/01/21 10:47:18;;;;;;;;;;;;;;;-1.29;100.00;98529.77;1667077;85;25012;-82
2022/01/21 10:49:46;;;;;;;;;;;;;;;-1.22;100.00;98518.93;1662360;85;21964;-82
2022/01/21 10:52:15;;;;;;;;;;;;;;;-1.21;100.00;98506.07;1662707;85;26307;-82
2022/01/21 10:54:44;;;;;;;;;;;;;;;-1.16;100.00;98505.53;1673992;85;24494;-83
2022/01/21 10:57:20;;;;;;;;;;;;;;;-1.12;100.00;98508.42;1666157;84;20606;-83
2022/01/21 10:59:48;;;;;;;;;;;;;;;-1.05;100.00;98509.14;1663391;85;24979;-83
2022/01/21 11:02:17;;;;;;;;;;;;;;;-1.00;100.00;98509.88;1669927;85;22695;-83
2022/01/21 11:04:44;;;;;;;;;;;;;;;-0.97;100.00;98502.94;1667664;84;26271;-82
2022/01/21 11:07:14;;;;;;;;;;;;;;;-0.95;100.00;98504.20;1668250;85;24479;-82
2022/01/21 11:09:38;;;;;;;;;;;;;;;-0.95;100.00;98510.19;1670365;85;20216;-82
2022/01/21 11:12:14;;;;;;;;;;;;;;;-0.94;100.00;98499.47;1667914;85;25061;-83
2022/01/21 11:14:54;;;;;;;;;;;;;;;-0.93;100.00;98497.31;1668352;85;21945;-82
2022/01/21 11:17:20;;;;;;;;;;;;;;;-0.90;100.00;98488.23;1683053;82;26040;-83
2022/01/21 11:20:07;;;;;;;;;;;;;;;-0.86;100.00;98500.97;1680484;85;20335;-82
2022/01/21 11:22:34;;;;;;;;;;;;;;;-0.79;100.00;98494.41;1681792;83;20216;-82
2022/01/21 11:25:00;;;;;;;;;;;;;;;-0.73;99.83;98482.70;1681179;85;24989;-83
2022/01/21 11:27:32;;;;;;;;;;;;;;;-0.69;99.67;98483.87;1667839;85;20300;-82
2022/01/21 11:29:58;;;;;;;;;;;;;;;-0.64;99.46;98487.61;1665336;85;26679;-83
2022/01/21 11:32:24;;;;;;;;;;;;;;;-0.63;99.18;98486.30;1666546;85;24568;-83
2022/01/21 11:34:52;;;;;;;;;;;;;;;-0.63;98.91;98482.45;1667145;84;20303;-83
2022/01/21 11:37:18;;;;;;;;;;;;;;;-0.62;98.56;98479.44;1663282;84;24988;-83
2022/01/21 11:39:44;;;;;;;;;;;;;;;-0.64;98.23;98476.89;1667241;85;22004;-83
2022/01/21 11:42:11;;;;;;;;;;;;;;;-0.60;97.98;98481.07;1668139;85;26220;-83
2022/01/21 11:44:40;;;;;;;;;;;;;;;-0.57;97.73;98475.02;1668573;85;24650;-83
2022/01/21 11:47:16;;;;;;;;;;;;;;;-0.54;97.48;98481.36;1671337;85;20307;-83
2022/01/21 11:49:43;;;;;;;;;;;;;;;-0.53;97.19;98473.62;1668665;84;25008;-83
2022/01/21 11:52:11;;;;;;;;;;;;;;;-0.53;96.89;98474.06;1670372;85;22046;-82
2022/01/21 11:54:38;;;;;;;;;;;;;;;-0.57;96.49;98472.02;1669758;84;26235;-82
2022/01/21 11:57:06;;;;;;;;;;;;;;;-0.57;96.11;98470.73;1671105;84;24438;-82
2022/01/21 11:59:37;;;;;;;;;;;;;;;-0.58;95.73;98473.33;1667657;85;20427;-82
2022/01/21 12:02:19;;;;;;;;;;;;;;;-0.58;95.37;98469.48;1670551;84;25068;-82
2022/01/21 12:04:55;;;;;;;;;;;;;;;-0.56;95.06;98467.28;1666465;84;22754;-82
2022/01/21 12:07:44;;;;;;;;;;;;;;;-0.53;94.75;98463.34;1667918;85;26906;-82
2022/01/21 12:10:11;;;;;;;;;;;;;;;-0.49;94.51;98461.52;1669955;85;24553;-82
2022/01/21 12:12:50;;;;;;;;;;;;;;;-0.47;94.27;98466.20;1668995;85;20213;-82
2022/01/21 12:15:27;;;;;;;;;;;;;;;-0.47;93.96;98461.91;1671374;85;24992;-82
2022/01/21 12:17:59;;;;;;;;;;;;;;;-0.42;93.63;98452.78;1670371;85;22311;-82
2022/01/21 12:20:27;;;;;;;;;;;;;;;-0.32;93.45;98461.94;1656159;85;26042;-82
2022/01/21 12:23:14;;;;;;;;;;;;;;;-0.25;93.30;98452.34;1669975;85;25244;-82
2022/01/21 12:26:00;;;;;;;;;;;;;;;-0.24;93.08;98457.90;1670304;85;20304;-82
2022/01/21 12:28:30;;;;;;;;;;;;;;;-0.19;92.84;98458.18;1670527;85;25068;-82
2022/01/21 12:30:59;;;;;;;;;;;;;;;-0.18;92.63;98450.02;1667681;85;22152;-82
2022/01/21 12:33:27;;;;;;;;;;;;;;;-0.19;92.36;98449.62;1671389;85;26688;-82
2022/01/21 12:35:56;;;;;;;;;;;;;;;-0.21;92.04;98457.80;1668882;85;24541;-83
2022/01/21 12:40:58;;;;;;;;;;;;;;;-0.18;91.51;98447.45;1670108;85;25044;-82
2022/01/21 12:43:38;;;;;;;;;;;;;;;-0.10;91.31;98442.93;1669332;85;22054;-82
2022/01/21 12:46:06;;;;;;;;;;;;;;;-0.04;91.07;98446.19;1655981;85;26041;-82
2022/01/21 12:48:35;;;;;;;;;;;;;;;0.02;90.88;98440.03;1670327;85;24437;-82
2022/01/21 12:51:14;;;;;;;;;;;;;;;0.04;90.61;98438.27;1669051;85;20585;-83
2022/01/21 12:53:45;;;;;;;;;;;;;;;0.07;90.34;98434.31;1669706;85;25212;-83
2022/01/21 12:56:04;;;;;;;;;;;;;;;0.06;90.05;98431.77;1669917;85;22674;-83
2022/01/21 12:58:31;;;;;;;;;;;;;;;0.05;89.75;98427.54;1670124;85;26889;-83
2022/01/21 13:01:02;;;;;;;;;;;;;;;0.03;89.45;98428.02;1670331;85;24621;-83
2022/01/21 13:03:36;;;;;;;;;;;;;;;-0.06;89.05;98456.13;1669618;85;20346;-83
2022/01/21 13:06:07;;;;;;;;;;;;;;;-0.17;88.65;98449.14;1669925;85;25005;-83
2022/01/21 13:08:44;;;;;;;;;;;;;;;-0.32;88.15;98449.53;1671003;85;22027;-84
2022/01/21 13:11:11;;;;;;;;;;;;;;;-0.38;87.75;98451.00;1660425;85;26033;-83
2022/01/21 13:13:50;;;;;;;;;;;;;;;-0.45;87.38;98451.16;1663370;85;24522;-83
2022/01/21 13:16:25;;;;;;;;;;;;;;;-0.49;87.07;98431.53;1664879;85;20233;-83
2022/01/21 13:18:53;;;;;;;;;;;;;;;-0.54;86.68;98450.52;1666022;86;24987;-83
2022/01/21 13:21:19;;;;;;;;;;;;;;;-0.58;86.32;98464.34;1663122;85;22274;-83
2022/01/21 13:23:55;;;;;;;;;;;;;;;-0.61;86.08;98462.70;1664014;86;26029;-84
2022/01/21 13:26:19;;;;;;;;;;;;;;;-0.58;85.93;98472.05;1652052;85;20703;-83
2022/01/21 13:29:06;;;;;;;;;;;;;;;-0.59;85.83;98472.92;1667433;85;20189;-83
2022/01/21 13:31:38;;;;;;;;;;;;;;;-0.59;85.70;98466.50;1660811;86;25081;-83
2022/01/21 13:34:06;;;;;;;;;;;;;;;-0.58;85.57;98469.03;1663556;86;21987;-83
2022/01/21 13:36:39;;;;;;;;;;;;;;;-0.55;85.53;98461.27;1662580;86;26148;-83
2022/01/21 13:39:09;;;;;;;;;;;;;;;-0.47;85.56;98463.63;1662433;86;25233;-84